Time,TemperatureF,DewpointF,PressureIn,WindDirection,WindDirectionDegrees,WindSpeedMPH,WindSpeedGustMPH,Humidity,HourlyPrecipIn,Conditions,Clouds,dailyrainin,SoftwareType,DateUTC
2015-03-28 00:11:00,48.0,41.0,30.28,SSE,155,0.0,0.0,77,0.00,,,0.00,,2015-03-28 07:11:00,
2015-03-28 00:21:00,48.0,42.0,30.29,SSE,155,0.0,0.0,79,0.00,,,0.00,,2015-03-28 07:21:00,
2015-03-28 00:41:00,47.0,41.0,30.29,SSE,155,0.0,0.0,81,0.00,,,0.00,,2015-03-28 07:41:00,
2015-03-28 00:51:00,46.0,41.0,30.29,SSE,155,0.0,0.0,83,0.00,,,0.00,,2015-03-28 07:51:00,
2015-03-28 01:21:00,45.0,41.0,30.29,SSE,155,0.0,0.0,86,0.00,,,0.00,,2015-03-28 08:21:00,
2015-03-28 01:41:00,44.0,40.0,30.30,SSE,155,0.0,0.0,86,0.00,,,0.00,,2015-03-28 08:41:00,
2015-03-28 01:51:00,44.0,40.0,30.30,SSE,155,0.0,0.0,87,0.00,,,0.00,,2015-03-28 08:51:00,
2015-03-28 02:11:00,43.0,40.0,30.31,SSE,155,0.0,0.0,88,0.00,,,0.00,,2015-03-28 09:11:00,
2015-03-28 02:21:00,42.0,39.0,30.31,SSE,155,0.0,0.0,88,0.00,,,0.00,,2015-03-28 09:21:00,
2015-03-28 02:52:00,41.0,38.0,30.32,SSE,155,0.0,0.0,89,0.00,,,0.00,,2015-03-28 09:52:00,
2015-03-28 03:12:00,40.0,37.0,30.32,SSE,155,0.0,0.0,90,0.00,,,0.00,,2015-03-28 10:12:00,
2015-03-28 03:22:00,39.0,36.0,30.32,SSE,155,0.0,0.0,90,0.00,,,0.00,,2015-03-28 10:22:00,
2015-03-28 03:52:00,39.0,36.0,30.32,SSE,155,0.0,0.0,90,0.00,,,0.00,,2015-03-28 10:52:00,
2015-03-28 04:22:00,38.0,36.0,30.32,SSE,155,0.0,0.0,91,0.00,,,0.00,,2015-03-28 11:22:00,
2015-03-28 04:52:00,37.0,35.0,30.32,SSE,155,0.0,0.0,91,0.00,,,0.00,,2015-03-28 11:52:00,
2015-03-28 05:11:00,36.0,34.0,30.32,SSE,155,0.0,0.0,91,0.00,,,0.00,,2015-03-28 12:11:00,
2015-03-28 05:22:00,36.0,34.0,30.32,SSE,155,0.0,0.0,91,0.00,,,0.00,,2015-03-28 12:22:00,
2015-03-28 05:52:00,35.0,33.0,30.32,SSE,155,0.0,0.0,91,0.00,,,0.00,,2015-03-28 12:52:00,
2015-03-28 06:11:00,35.0,33.0,30.32,SSE,155,0.0,0.0,91,0.00,,,0.00,,2015-03-28 13:11:00,
2015-03-28 06:21:00,35.0,33.0,30.32,SSE,155,0.0,0.0,91,0.00,,,0.00,,2015-03-28 13:21:00,
2015-03-28 06:41:00,34.0,32.0,30.33,SSE,155,0.0,0.0,91,0.00,,,0.00,,2015-03-28 13:41:00,
2015-03-28 06:51:00,34.0,32.0,30.33,SSE,155,0.0,0.0,91,0.00,,,0.00,,2015-03-28 13:51:00,
2015-03-28 07:21:00,34.0,32.0,30.34,SSE,155,0.0,0.0,91,0.00,,,0.00,,2015-03-28 14:21:00,
2015-03-28 07:41:00,33.0,31.0,30.35,SSE,155,0.0,0.0,91,0.00,,,0.00,,2015-03-28 14:41:00,
2015-03-28 07:51:00,33.0,31.0,30.35,SSE,155,0.0,0.0,91,0.00,,,0.00,,2015-03-28 14:51:00,
2015-03-28 08:21:00,34.0,32.0,30.37,SSE,155,0.0,0.0,91,0.00,,,0.00,,2015-03-28 15:21:00,
2015-03-28 08:52:00,36.0,34.0,30.38,SSE,155,0.0,0.0,91,0.00,,,0.00,,2015-03-28 15:52:00,
2015-03-28 09:12:00,38.0,36.0,30.38,SSE,155,0.0,0.0,91,0.00,,,0.00,,2015-03-28 16:12:00,
2015-03-28 09:22:00,39.0,37.0,30.39,SSE,155,0.0,0.0,91,0.00,,,0.00,,2015-03-28 16:22:00,
2015-03-28 09:52:00,41.0,39.0,30.39,SSE,155,0.0,0.0,91,0.00,,,0.01,,2015-03-28 16:52:00,
2015-03-28 10:12:00,44.0,41.0,30.39,SSE,155,0.0,0.0,89,0.00,,,0.01,,2015-03-28 17:12:00,
2015-03-28 10:22:00,45.0,40.0,30.39,SSE,155,0.0,0.0,84,0.00,,,0.01,,2015-03-28 17:22:00,
2015-03-28 10:42:00,46.0,39.0,30.39,West,265,0.0,0.0,77,0.00,,,0.01,,2015-03-28 17:42:00,
2015-03-28 10:52:00,47.0,40.0,30.39,West,265,0.0,0.0,76,0.00,,,0.01,,2015-03-28 17:52:00,
2015-03-28 11:12:00,48.0,40.0,30.39,West,264,0.0,0.0,74,0.00,,,0.01,,2015-03-28 18:12:00,
2015-03-28 11:22:00,48.0,40.0,30.39,West,269,0.0,0.0,75,0.00,,,0.01,,2015-03-28 18:22:00,
2015-03-28 11:52:00,52.0,42.0,30.37,South,185,0.0,0.0,68,0.00,,,0.01,,2015-03-28 18:52:00,
2015-03-28 12:11:00,54.0,41.0,30.37,WNW,288,0.0,0.0,61,0.00,,,0.01,,2015-03-28 19:11:00,
2015-03-28 12:21:00,55.0,42.0,30.37,SSE,168,0.0,4.0,61,0.00,,,0.01,,2015-03-28 19:21:00,
2015-03-28 12:51:00,58.0,42.0,30.35,SW,234,0.0,5.0,55,0.00,,,0.01,,2015-03-28 19:51:00,
2015-03-28 13:11:00,57.0,41.0,30.34,SSW,195,1.0,6.0,56,0.00,,,0.01,,2015-03-28 20:11:00,
2015-03-28 13:21:00,59.0,42.0,30.33,South,178,0.0,4.0,54,0.00,,,0.01,,2015-03-28 20:21:00,
2015-03-28 13:52:00,60.0,40.0,30.32,South,179,0.0,0.0,48,0.00,,,0.01,,2015-03-28 20:52:00,
2015-03-28 14:11:00,62.0,38.0,30.30,South,183,0.0,4.0,41,0.00,,,0.01,,2015-03-28 21:11:00,
2015-03-28 14:21:00,61.0,36.0,30.29,South,183,1.0,5.0,40,0.00,,,0.01,,2015-03-28 21:21:00,
2015-03-28 14:42:00,63.0,35.0,30.28,South,181,0.0,2.0,35,0.00,,,0.01,,2015-03-28 21:42:00,
2015-03-28 14:52:00,64.0,35.0,30.28,WNW,300,0.0,3.0,34,0.00,,,0.01,,2015-03-28 21:52:00,
2015-03-28 15:22:00,63.0,34.0,30.27,South,175,2.0,9.0,34,0.00,,,0.01,,2015-03-28 22:22:00,
2015-03-28 16:11:00,67.0,30.0,30.26,WSW,242,0.0,1.0,25,0.00,,,0.01,,2015-03-28 23:11:00,
2015-03-28 16:21:00,66.0,32.0,30.26,SE,135,0.0,1.0,28,0.00,,,0.01,,2015-03-28 23:21:00,
2015-03-28 16:51:00,64.0,36.0,30.25,South,169,0.0,2.0,35,0.00,,,0.01,,2015-03-28 23:51:00,
2015-03-28 17:11:00,64.0,40.0,30.25,SSW,200,0.0,2.0,42,0.00,,,0.01,,2015-03-29 00:11:00,
2015-03-28 17:21:00,64.0,39.0,30.25,SSW,211,0.0,1.0,40,0.00,,,0.01,,2015-03-29 00:21:00,
2015-03-28 17:41:00,65.0,39.0,30.25,WNW,295,0.0,2.0,38,0.00,,,0.01,,2015-03-29 00:41:00,
2015-03-28 17:51:00,64.0,39.0,30.25,South,184,0.0,2.0,39,0.00,,,0.01,,2015-03-29 00:51:00,
2015-03-28 18:11:00,64.0,37.0,30.24,South,183,0.0,0.0,37,0.00,,,0.01,,2015-03-29 01:11:00,
2015-03-28 18:21:00,63.0,38.0,30.24,SSW,193,0.0,0.0,40,0.00,,,0.01,,2015-03-29 01:21:00,
2015-03-28 18:51:00,61.0,39.0,30.25,SSW,193,0.0,0.0,44,0.00,,,0.01,,2015-03-29 01:51:00,
2015-03-28 19:11:00,59.0,40.0,30.25,SSW,193,0.0,1.0,49,0.00,,,0.01,,2015-03-29 02:11:00,
2015-03-28 19:21:00,57.0,40.0,30.25,NW,309,0.0,2.0,52,0.00,,,0.01,,2015-03-29 02:21:00,
2015-03-28 20:21:00,51.0,41.0,30.26,North,11,0.0,0.0,69,0.00,,,0.01,,2015-03-29 03:21:00,